Terminal Aerodrome Forecast
Issued by NWS

Home | Current Version | Previous Version | Text Only | Print | Product List | Glossary On
Versions: 1 2 3 4 5 6 7 8 9 10 11 12 13 14
200
FTUS41 KBTV 230221 AAA
TAFMPV
TAF AMD
KMPV 230221Z 2302/2324 22008KT 6SM -SHRA OVC035
     FM230500 22009KT P6SM BKN015 BKN060
     FM231000 25008KT P6SM FEW035 SCT070=

USA.gov is the U.S. government's official web portal to all federal, state and local government web resources and services.